createdAt,value
2022-08-09T00:00:08.141Z,377
2022-08-09T00:01:10.693Z,371
2022-08-09T00:02:07.113Z,376
2022-08-09T00:04:25.177Z,378
2022-08-09T00:06:17.819Z,385
2022-08-09T00:06:19.790Z,383
2022-08-09T00:07:10.517Z,388
2022-08-09T00:08:09.967Z,391
2022-08-09T00:09:07.773Z,388
2022-08-09T00:10:07.760Z,378
2022-08-09T00:11:24.548Z,374
2022-08-09T00:12:07.223Z,386
2022-08-09T00:13:17.028Z,368
2022-08-09T00:14:06.963Z,375
2022-08-09T00:15:07.411Z,385
2022-08-09T00:16:07.119Z,382
2022-08-09T00:17:07.394Z,377
2022-08-09T00:18:11.521Z,381
2022-08-09T00:19:09.523Z,385
2022-08-09T00:20:07.439Z,383
2022-08-09T00:21:07.799Z,392
2022-08-09T00:22:06.959Z,395
2022-08-09T00:23:53.890Z,394
2022-08-09T00:24:07.197Z,402
2022-08-09T00:25:10.036Z,403
2022-08-09T00:26:07.512Z,392
2022-08-09T00:27:07.597Z,389
2022-08-09T00:28:07.975Z,384
2022-08-09T00:30:24.543Z,382
2022-08-09T00:33:07.166Z,387
2022-08-09T00:34:06.969Z,384
2022-08-09T00:35:07.301Z,385
2022-08-09T00:36:07.474Z,389
2022-08-09T00:37:07.173Z,395
2022-08-09T00:38:07.306Z,398
2022-08-09T00:39:17.092Z,388
2022-08-09T00:40:13.663Z,381
2022-08-09T00:41:08.287Z,382
2022-08-09T00:44:11.447Z,380
2022-08-09T00:44:14.162Z,389
2022-08-09T00:44:15.598Z,399
2022-08-09T00:45:16.075Z,382
2022-08-09T00:46:07.452Z,388
2022-08-09T00:47:07.293Z,391
2022-08-09T00:48:07.225Z,395
2022-08-09T00:49:07.094Z,394
2022-08-09T00:50:07.037Z,393
2022-08-09T00:51:11.767Z,394
2022-08-09T00:52:17.305Z,380
2022-08-09T00:53:10.435Z,371
2022-08-09T00:54:07.165Z,384
2022-08-09T00:55:07.550Z,381
2022-08-09T00:56:09.991Z,383
2022-08-09T00:57:10.648Z,390
2022-08-09T00:58:07.590Z,400
2022-08-09T00:59:07.160Z,390
2022-08-09T01:00:21.279Z,415
2022-08-09T01:01:06.986Z,391
2022-08-09T01:02:06.891Z,394
2022-08-09T01:03:07.585Z,398
2022-08-09T01:04:07.759Z,394
2022-08-09T01:05:14.302Z,397
2022-08-09T01:06:17.966Z,392
2022-08-09T01:07:07.270Z,384
2022-08-09T01:08:07.204Z,382
2022-08-09T01:09:07.088Z,386
2022-08-09T01:10:07.297Z,382
2022-08-09T01:11:08.547Z,381
2022-08-09T01:12:06.900Z,375
2022-08-09T01:13:07.538Z,372
2022-08-09T01:14:07.310Z,380
2022-08-09T01:15:16.648Z,369
2022-08-09T01:16:07.105Z,362
2022-08-09T01:17:08.980Z,375
2022-08-09T01:18:08.459Z,387
2022-08-09T01:19:07.130Z,386
2022-08-09T01:20:06.930Z,385
2022-08-09T01:21:06.900Z,392
2022-08-09T01:22:07.368Z,388
2022-08-09T01:24:00.762Z,393
2022-08-09T01:24:08.469Z,387
2022-08-09T01:25:06.759Z,376
2022-08-09T01:26:07.445Z,364
2022-08-09T01:27:07.843Z,376
2022-08-09T01:28:06.876Z,377
2022-08-09T01:29:07.041Z,386
2022-08-09T01:31:07.061Z,407
2022-08-09T01:32:29.868Z,372
2022-08-09T01:33:07.047Z,370
2022-08-09T01:34:08.933Z,376
2022-08-09T01:35:29.094Z,381
2022-08-09T01:36:07.519Z,370
2022-08-09T01:37:07.413Z,374
2022-08-09T01:38:09.800Z,380
2022-08-09T01:39:07.544Z,378
2022-08-09T01:40:07.188Z,372
2022-08-09T01:41:06.986Z,380
2022-08-09T01:42:11.292Z,365
2022-08-09T01:43:07.186Z,369
2022-08-09T01:44:07.251Z,374
2022-08-09T01:45:07.536Z,392
2022-08-09T01:46:07.267Z,379
2022-08-09T01:47:07.460Z,364
2022-08-09T01:48:07.611Z,373
2022-08-09T01:49:10.721Z,376
2022-08-09T01:50:07.820Z,372
2022-08-09T01:51:07.549Z,375
2022-08-09T01:52:07.899Z,376
2022-08-09T01:53:19.549Z,383
2022-08-09T01:54:07.142Z,379
2022-08-09T01:55:07.246Z,370
2022-08-09T01:56:07.539Z,374
2022-08-09T01:57:08.114Z,386
2022-08-09T01:58:07.673Z,374
2022-08-09T01:59:07.467Z,386
2022-08-09T02:00:34.241Z,388
2022-08-09T02:01:08.006Z,382
2022-08-09T02:02:07.636Z,368
2022-08-09T02:03:07.462Z,380
2022-08-09T02:04:08.564Z,383
2022-08-09T02:05:15.417Z,376
2022-08-09T02:07:07.166Z,371
2022-08-09T02:08:38.629Z,374
2022-08-09T02:09:07.453Z,370
2022-08-09T02:10:07.483Z,368
2022-08-09T02:11:16.609Z,384
2022-08-09T02:13:07.307Z,387
2022-08-09T02:14:07.970Z,380
2022-08-09T02:15:21.736Z,389
2022-08-09T02:16:06.981Z,379
2022-08-09T02:17:59.399Z,375
2022-08-09T02:18:10.242Z,376
2022-08-09T02:19:07.118Z,382
2022-08-09T02:20:07.377Z,358
2022-08-09T02:21:07.485Z,381
2022-08-09T02:22:07.114Z,380
2022-08-09T02:23:07.010Z,377
2022-08-09T02:24:07.181Z,374
2022-08-09T02:25:07.338Z,390
2022-08-09T02:26:07.142Z,385
2022-08-09T02:27:07.219Z,378
2022-08-09T02:28:09.541Z,370
2022-08-09T02:29:07.066Z,375
2022-08-09T02:30:07.615Z,373
2022-08-09T02:32:07.590Z,375
2022-08-09T02:33:07.969Z,383
2022-08-09T02:34:13.578Z,386
2022-08-09T02:35:17.170Z,378
2022-08-09T02:36:07.598Z,368
2022-08-09T02:37:07.292Z,377
2022-08-09T02:38:07.166Z,369
2022-08-09T02:39:40.066Z,373
2022-08-09T02:40:10.288Z,381
2022-08-09T02:41:07.699Z,387
2022-08-09T02:42:06.988Z,384
2022-08-09T02:43:07.098Z,369
2022-08-09T02:44:13.690Z,372
2022-08-09T02:45:07.189Z,374
2022-08-09T02:46:06.943Z,386
2022-08-09T02:47:07.485Z,384
2022-08-09T02:48:19.432Z,389
2022-08-09T02:49:06.855Z,387
2022-08-09T02:50:07.286Z,380
2022-08-09T02:51:07.842Z,367
2022-08-09T02:52:07.851Z,390
2022-08-09T02:53:07.074Z,374
2022-08-09T02:54:07.271Z,377
2022-08-09T02:55:19.925Z,382
2022-08-09T02:56:07.314Z,377
2022-08-09T02:57:14.099Z,374
2022-08-09T02:58:37.105Z,370
2022-08-09T02:59:07.923Z,372
2022-08-09T03:01:08.344Z,376
2022-08-09T03:02:08.156Z,382
2022-08-09T03:03:07.291Z,376
2022-08-09T03:04:18.165Z,378
2022-08-09T03:05:08.057Z,383
2022-08-09T03:06:06.916Z,389
2022-08-09T03:07:12.329Z,394
2022-08-09T03:08:07.099Z,387
2022-08-09T03:09:07.737Z,353
2022-08-09T03:10:07.570Z,373
2022-08-09T03:11:07.128Z,377
2022-08-09T03:12:11.259Z,372
2022-08-09T03:13:08.557Z,386
2022-08-09T03:14:07.680Z,381
2022-08-09T03:15:07.675Z,380
2022-08-09T03:16:07.581Z,384
2022-08-09T03:17:07.669Z,386
2022-08-09T03:18:10.687Z,380
2022-08-09T03:19:16.569Z,369
2022-08-09T03:20:11.248Z,373
2022-08-09T03:21:07.144Z,384
2022-08-09T03:22:12.355Z,387
2022-08-09T03:23:14.664Z,388
2022-08-09T03:24:10.087Z,378
2022-08-09T03:25:25.849Z,381
2022-08-09T03:26:07.291Z,377
2022-08-09T03:27:07.285Z,382
2022-08-09T03:28:11.314Z,377
2022-08-09T03:29:09.721Z,384
2022-08-09T03:30:07.996Z,373
2022-08-09T03:31:10.073Z,378
2022-08-09T03:32:07.289Z,376
2022-08-09T03:33:18.531Z,384
2022-08-09T03:34:07.619Z,388
2022-08-09T03:35:24.205Z,392
2022-08-09T03:37:10.749Z,384
2022-08-09T03:38:06.453Z,379
2022-08-09T03:39:07.411Z,381
2022-08-09T03:40:07.904Z,376
2022-08-09T03:41:07.159Z,389
2022-08-09T03:42:07.200Z,386
2022-08-09T03:43:07.351Z,389
2022-08-09T03:44:08.728Z,385
2022-08-09T03:45:07.544Z,387
2022-08-09T03:46:19.952Z,388
2022-08-09T03:47:07.147Z,381
2022-08-09T03:48:07.109Z,365
2022-08-09T03:49:07.768Z,379
2022-08-09T03:50:07.616Z,378
2022-08-09T03:51:07.295Z,376
2022-08-09T03:53:07.305Z,377
2022-08-09T03:54:10.937Z,387
2022-08-09T03:55:09.807Z,389
2022-08-09T03:56:07.036Z,386
2022-08-09T03:57:18.389Z,381
2022-08-09T03:59:07.195Z,387
2022-08-09T04:01:07.210Z,382
2022-08-09T04:02:07.658Z,375
2022-08-09T04:03:07.326Z,381
2022-08-09T04:04:10.098Z,386
2022-08-09T04:05:13.891Z,382
2022-08-09T04:06:07.046Z,376
2022-08-09T04:07:07.456Z,374
2022-08-09T04:08:07.343Z,381
2022-08-09T04:09:15.108Z,377
2022-08-09T04:10:07.350Z,385
2022-08-09T04:11:11.147Z,386
2022-08-09T04:13:07.197Z,379
2022-08-09T04:14:53.085Z,372
2022-08-09T04:15:11.339Z,381
2022-08-09T04:16:20.673Z,385
2022-08-09T04:17:07.365Z,383
2022-08-09T04:18:07.341Z,378
2022-08-09T04:19:10.997Z,373
2022-08-09T04:20:07.424Z,372
2022-08-09T04:21:07.308Z,374
2022-08-09T04:22:12.212Z,386
2022-08-09T04:23:09.782Z,395
2022-08-09T04:24:12.087Z,396
2022-08-09T04:25:07.482Z,388
2022-08-09T04:26:06.973Z,387
2022-08-09T04:27:07.233Z,386
2022-08-09T04:28:07.525Z,381
2022-08-09T04:29:13.389Z,384
2022-08-09T04:30:07.183Z,382
2022-08-09T04:31:09.221Z,389
2022-08-09T04:32:07.508Z,385
2022-08-09T04:33:07.851Z,393
2022-08-09T04:34:07.261Z,385
2022-08-09T04:35:08.728Z,378
2022-08-09T04:37:07.103Z,384
2022-08-09T04:38:06.973Z,385
2022-08-09T04:39:07.590Z,394
2022-08-09T04:40:07.091Z,395
2022-08-09T04:41:11.895Z,386
2022-08-09T04:42:09.293Z,383
2022-08-09T04:43:07.831Z,392
2022-08-09T04:44:10.300Z,393
2022-08-09T04:45:07.336Z,388
2022-08-09T04:46:07.435Z,384
2022-08-09T04:47:07.572Z,391
2022-08-09T04:48:10.588Z,382
2022-08-09T04:49:06.997Z,406
2022-08-09T04:50:07.493Z,389
2022-08-09T04:51:06.938Z,386
2022-08-09T04:53:13.443Z,388
2022-08-09T04:54:07.131Z,381
2022-08-09T04:55:12.309Z,375
2022-08-09T04:56:07.418Z,380
2022-08-09T04:57:10.023Z,377
2022-08-09T04:58:09.721Z,378
2022-08-09T04:59:15.542Z,377
2022-08-09T05:00:08.179Z,380
2022-08-09T05:01:16.499Z,373
2022-08-09T05:02:07.583Z,377
2022-08-09T05:03:12.736Z,385
2022-08-09T05:04:07.097Z,384
2022-08-09T05:05:10.026Z,386
2022-08-09T05:06:07.645Z,373
2022-08-09T05:07:07.295Z,384
2022-08-09T05:08:07.348Z,383
2022-08-09T05:09:07.395Z,391
2022-08-09T05:10:07.032Z,379
2022-08-09T05:11:07.812Z,372
2022-08-09T05:12:07.059Z,374
2022-08-09T05:13:07.459Z,382
2022-08-09T05:15:11.796Z,387
2022-08-09T05:19:07.672Z,388
2022-08-09T05:20:07.066Z,390
2022-08-09T05:21:13.448Z,380
2022-08-09T05:23:55.166Z,391
2022-08-09T05:24:08.269Z,385
2022-08-09T05:25:07.431Z,384
2022-08-09T05:26:07.114Z,379
2022-08-09T05:27:06.959Z,365
2022-08-09T05:28:06.960Z,363
2022-08-09T05:29:07.003Z,362
2022-08-09T05:30:07.324Z,370
2022-08-09T05:31:09.432Z,372
2022-08-09T05:32:07.056Z,367
2022-08-09T05:33:09.374Z,383
2022-08-09T05:34:07.065Z,391
2022-08-09T05:35:07.784Z,379
2022-08-09T05:36:07.222Z,374
2022-08-09T05:37:07.436Z,377
2022-08-09T05:38:07.507Z,370
2022-08-09T05:39:07.464Z,390
2022-08-09T05:40:07.680Z,392
2022-08-09T05:41:12.686Z,383
2022-08-09T05:42:07.829Z,381
2022-08-09T05:43:07.169Z,374
2022-08-09T05:44:07.702Z,378
2022-08-09T05:45:07.717Z,379
2022-08-09T05:46:07.678Z,382
2022-08-09T05:48:07.088Z,375
2022-08-09T05:49:07.465Z,383
2022-08-09T05:51:29.960Z,396
2022-08-09T05:52:07.482Z,388
2022-08-09T05:53:11.745Z,374
2022-08-09T05:54:07.061Z,375
2022-08-09T05:55:08.744Z,391
2022-08-09T05:56:07.725Z,363
2022-08-09T05:57:06.930Z,360
2022-08-09T05:58:07.350Z,373
2022-08-09T05:59:07.170Z,382
2022-08-09T06:00:07.728Z,373
2022-08-09T06:01:07.858Z,368
2022-08-09T06:02:07.489Z,364
2022-08-09T06:03:10.683Z,368
2022-08-09T06:04:07.269Z,376
2022-08-09T06:05:07.205Z,374
2022-08-09T06:06:07.577Z,365
2022-08-09T06:07:07.700Z,362
2022-08-09T06:08:09.041Z,364
2022-08-09T06:09:10.018Z,365
2022-08-09T06:10:07.415Z,378
2022-08-09T06:11:16.441Z,388
2022-08-09T06:12:07.974Z,384
2022-08-09T06:13:12.406Z,380
2022-08-09T06:14:07.103Z,384
2022-08-09T06:15:10.114Z,376
2022-08-09T06:16:06.995Z,372
2022-08-09T06:17:09.400Z,382
2022-08-09T06:18:07.261Z,383
2022-08-09T06:19:07.484Z,392
2022-08-09T06:20:07.553Z,384
2022-08-09T06:21:07.129Z,371
2022-08-09T06:22:06.954Z,379
2022-08-09T06:23:07.168Z,365
2022-08-09T06:24:07.254Z,361
2022-08-09T06:25:08.663Z,366
2022-08-09T06:26:07.356Z,360
2022-08-09T06:27:07.145Z,374
2022-08-09T06:28:07.086Z,361
2022-08-09T06:29:07.629Z,375
2022-08-09T06:30:09.822Z,385
2022-08-09T06:31:06.922Z,391
2022-08-09T06:32:08.751Z,388
2022-08-09T06:33:30.232Z,386
2022-08-09T06:34:06.865Z,374
2022-08-09T06:35:07.402Z,371
2022-08-09T06:37:10.116Z,375
2022-08-09T06:38:07.224Z,376
2022-08-09T06:39:09.245Z,375
2022-08-09T06:40:21.926Z,379
2022-08-09T06:41:12.430Z,376
2022-08-09T06:42:08.625Z,382
2022-08-09T06:43:12.298Z,390
2022-08-09T06:44:07.193Z,375
2022-08-09T06:46:04.902Z,372
2022-08-09T06:46:11.102Z,367
2022-08-09T06:47:08.463Z,375
2022-08-09T06:48:07.077Z,370
2022-08-09T06:49:07.333Z,363
2022-08-09T06:50:13.921Z,364
2022-08-09T06:51:07.043Z,370
2022-08-09T06:52:07.805Z,375
2022-08-09T06:53:07.058Z,373
2022-08-09T06:54:09.184Z,366
2022-08-09T06:55:15.237Z,365
2022-08-09T06:56:07.234Z,369
2022-08-09T06:57:15.333Z,360
2022-08-09T06:58:07.767Z,373
2022-08-09T07:00:49.911Z,356
2022-08-09T07:00:53.931Z,365
2022-08-09T07:01:08.816Z,368
2022-08-09T07:02:07.295Z,374
2022-08-09T07:03:07.537Z,376
2022-08-09T07:04:06.982Z,375
2022-08-09T07:05:07.347Z,388
2022-08-09T07:06:07.505Z,386
2022-08-09T07:07:07.349Z,377
2022-08-09T07:08:06.922Z,376
2022-08-09T07:09:07.296Z,384
2022-08-09T07:10:24.071Z,382
2022-08-09T07:11:07.211Z,374
2022-08-09T07:12:07.826Z,377
2022-08-09T07:13:27.396Z,376
2022-08-09T07:14:07.381Z,391
2022-08-09T07:16:38.628Z,368
2022-08-09T07:16:41.868Z,377
2022-08-09T07:17:08.113Z,371
2022-08-09T07:18:07.101Z,365
2022-08-09T07:19:07.796Z,370
2022-08-09T07:20:08.173Z,378
2022-08-09T07:22:07.111Z,372
2022-08-09T07:23:19.118Z,376
2022-08-09T07:24:07.379Z,370
2022-08-09T07:25:09.702Z,377
2022-08-09T07:26:07.350Z,371
2022-08-09T07:27:15.486Z,364
2022-08-09T07:28:07.195Z,358
2022-08-09T07:29:12.203Z,347
2022-08-09T07:30:07.698Z,403
2022-08-09T07:31:07.504Z,384
2022-08-09T07:32:07.783Z,372
2022-08-09T07:33:12.256Z,363
2022-08-09T07:34:07.297Z,376
2022-08-09T07:35:08.035Z,379
2022-08-09T07:36:07.572Z,377
2022-08-09T07:37:10.939Z,374
2022-08-09T07:38:07.091Z,364
2022-08-09T07:40:07.871Z,378
2022-08-09T07:41:12.117Z,380
2022-08-09T07:42:07.114Z,374
2022-08-09T07:43:16.558Z,369
2022-08-09T07:44:07.144Z,372
2022-08-09T07:45:22.674Z,369
2022-08-09T07:46:07.145Z,381
2022-08-09T07:47:07.884Z,384
2022-08-09T07:48:07.296Z,372
2022-08-09T07:50:08.680Z,370
2022-08-09T07:52:02.819Z,376
2022-08-09T07:52:17.751Z,389
2022-08-09T07:53:07.204Z,381
2022-08-09T07:54:08.705Z,374
2022-08-09T07:55:09.519Z,358
2022-08-09T07:56:07.566Z,360
2022-08-09T07:57:11.591Z,364
2022-08-09T07:58:13.346Z,363
2022-08-09T07:59:12.522Z,368
2022-08-09T08:00:08.967Z,364
2022-08-09T08:03:08.368Z,368
2022-08-09T08:04:10.256Z,376
2022-08-09T08:06:07.241Z,370
2022-08-09T08:07:14.882Z,362
2022-08-09T08:09:02.414Z,366
2022-08-09T08:09:36.456Z,377
2022-08-09T08:10:08.986Z,367
2022-08-09T08:12:24.828Z,359
2022-08-09T08:12:24.993Z,364
2022-08-09T08:13:10.336Z,349
2022-08-09T08:14:07.593Z,372
2022-08-09T08:15:07.861Z,380
2022-08-09T08:16:07.152Z,370
2022-08-09T08:17:08.913Z,365
2022-08-09T08:18:07.028Z,363
2022-08-09T08:19:07.109Z,365
2022-08-09T08:20:12.911Z,374
2022-08-09T08:21:07.355Z,378
2022-08-09T08:22:08.138Z,383
2022-08-09T08:23:16.777Z,378
2022-08-09T08:24:11.749Z,375
2022-08-09T08:25:09.299Z,370
2022-08-09T08:26:11.586Z,364
2022-08-09T08:28:07.112Z,370
2022-08-09T08:29:07.423Z,371
2022-08-09T08:30:08.003Z,351
2022-08-09T08:31:13.947Z,348
2022-08-09T08:32:07.286Z,350
2022-08-09T08:33:07.299Z,362
2022-08-09T08:34:07.327Z,365
2022-08-09T08:35:07.177Z,350
2022-08-09T08:36:07.107Z,367
2022-08-09T08:37:07.349Z,370
2022-08-09T08:38:11.833Z,369
2022-08-09T08:39:08.583Z,359
2022-08-09T08:40:07.878Z,354
2022-08-09T08:41:07.741Z,353
2022-08-09T08:42:07.428Z,371
2022-08-09T08:43:13.346Z,342
2022-08-09T08:44:07.236Z,347
2022-08-09T08:45:11.949Z,358
2022-08-09T08:46:32.042Z,362
2022-08-09T08:47:12.223Z,363
2022-08-09T08:48:10.158Z,361
2022-08-09T08:49:07.377Z,365
2022-08-09T08:50:07.305Z,351
2022-08-09T08:51:07.287Z,358
2022-08-09T08:52:10.033Z,365
2022-08-09T08:53:11.974Z,352
2022-08-09T08:54:07.111Z,360
2022-08-09T08:55:06.957Z,344
2022-08-09T08:56:07.347Z,389
2022-08-09T08:57:11.365Z,355
2022-08-09T08:58:07.139Z,351
2022-08-09T09:00:12.877Z,364
2022-08-09T09:01:09.006Z,372
2022-08-09T09:02:07.805Z,366
2022-08-09T09:03:11.215Z,363
2022-08-09T09:04:07.090Z,370
2022-08-09T09:05:11.930Z,367
2022-08-09T09:06:07.360Z,357
2022-08-09T09:07:07.941Z,361
2022-08-09T09:08:07.238Z,366
2022-08-09T09:09:20.799Z,344
2022-08-09T09:10:12.065Z,379
2022-08-09T09:11:07.198Z,364
2022-08-09T09:12:12.053Z,369
2022-08-09T09:13:09.508Z,367
2022-08-09T09:14:07.209Z,363
2022-08-09T09:15:07.655Z,361
2022-08-09T09:16:07.070Z,356
2022-08-09T09:17:07.285Z,359
2022-08-09T09:19:39.861Z,361
2022-08-09T09:20:07.766Z,360
2022-08-09T09:21:07.235Z,355
2022-08-09T09:22:11.214Z,361
2022-08-09T09:23:07.121Z,363
2022-08-09T09:24:10.579Z,345
2022-08-09T09:26:00.373Z,341
2022-08-09T09:26:12.252Z,336
2022-08-09T09:27:07.116Z,350
2022-08-09T09:28:10.674Z,358
2022-08-09T09:29:11.367Z,359
2022-08-09T09:30:14.203Z,363
2022-08-09T09:32:16.475Z,346
2022-08-09T09:33:16.820Z,343
2022-08-09T09:34:07.639Z,335
2022-08-09T09:35:09.314Z,347
2022-08-09T09:36:19.891Z,353
2022-08-09T09:37:06.982Z,360
2022-08-09T09:38:07.450Z,354
2022-08-09T09:39:07.931Z,350
2022-08-09T09:40:07.623Z,352
2022-08-09T09:41:07.268Z,367
2022-08-09T09:42:10.810Z,372
2022-08-09T09:43:07.374Z,358
2022-08-09T09:44:10.833Z,350
2022-08-09T09:45:08.400Z,361
2022-08-09T09:47:07.713Z,357
2022-08-09T09:48:08.457Z,363
2022-08-09T09:49:06.870Z,366
2022-08-09T09:50:15.334Z,360
2022-08-09T09:51:07.163Z,351
2022-08-09T09:52:07.318Z,361
2022-08-09T09:53:09.004Z,364
2022-08-09T09:54:17.874Z,355
2022-08-09T09:55:16.084Z,358
2022-08-09T09:56:07.250Z,360
2022-08-09T09:58:01.634Z,359
2022-08-09T09:58:18.335Z,356
2022-08-09T09:59:07.224Z,360
2022-08-09T10:01:30.293Z,368
2022-08-09T10:02:07.241Z,363
2022-08-09T10:03:09.158Z,354
2022-08-09T10:04:09.714Z,327
2022-08-09T10:05:07.279Z,399
2022-08-09T10:06:07.399Z,364
2022-08-09T10:07:10.072Z,350
2022-08-09T10:08:26.966Z,346
2022-08-09T10:10:07.232Z,354
2022-08-09T10:11:52.633Z,353
2022-08-09T10:12:14.817Z,362
2022-08-09T10:13:07.553Z,365
2022-08-09T10:14:07.449Z,360
2022-08-09T10:15:07.743Z,354
2022-08-09T10:16:55.781Z,350
2022-08-09T10:17:39.208Z,357
2022-08-09T10:18:07.898Z,353
2022-08-09T10:19:07.285Z,361
2022-08-09T10:20:10.869Z,360
2022-08-09T10:21:07.052Z,364
2022-08-09T10:22:07.113Z,361
2022-08-09T10:23:07.052Z,359
2022-08-09T10:25:11.763Z,367
2022-08-09T10:26:10.689Z,363
2022-08-09T10:27:10.278Z,361
2022-08-09T10:28:07.297Z,356
2022-08-09T10:29:21.353Z,363
2022-08-09T10:30:34.162Z,360
2022-08-09T10:32:39.000Z,371
2022-08-09T10:33:08.063Z,355
2022-08-09T10:34:11.424Z,354
2022-08-09T10:35:07.826Z,363
2022-08-09T10:36:11.470Z,362
2022-08-09T10:37:09.648Z,365
2022-08-09T10:38:07.591Z,357
2022-08-09T10:39:13.843Z,349
2022-08-09T10:40:08.418Z,358
2022-08-09T10:41:07.530Z,353
2022-08-09T10:43:08.919Z,346
2022-08-09T10:44:07.600Z,339
2022-08-09T10:45:11.886Z,333
2022-08-09T10:46:07.114Z,345
2022-08-09T10:47:20.299Z,363
2022-08-09T10:48:13.154Z,366
2022-08-09T10:49:07.152Z,356
2022-08-09T10:50:07.118Z,349
2022-08-09T10:51:07.334Z,351
2022-08-09T10:52:07.426Z,353
2022-08-09T10:53:10.656Z,358
2022-08-09T10:54:12.291Z,363
2022-08-09T10:55:07.401Z,369
2022-08-09T10:56:07.117Z,358
2022-08-09T10:57:07.237Z,338
2022-08-09T10:58:07.229Z,343
2022-08-09T10:59:07.290Z,339
2022-08-09T11:00:07.917Z,342
2022-08-09T11:03:03.128Z,362
2022-08-09T11:03:15.364Z,357
2022-08-09T11:03:18.600Z,356
2022-08-09T11:04:07.894Z,359
2022-08-09T11:05:07.663Z,361
2022-08-09T11:06:07.511Z,374
2022-08-09T11:07:07.314Z,371
2022-08-09T11:08:07.221Z,367
2022-08-09T11:09:16.186Z,361
2022-08-09T11:10:07.687Z,381
2022-08-09T11:11:08.915Z,356
2022-08-09T11:12:07.646Z,354
2022-08-09T11:13:07.579Z,349
2022-08-09T11:15:07.692Z,351
2022-08-09T11:16:07.118Z,356
2022-08-09T11:17:07.690Z,354
2022-08-09T11:18:07.795Z,347
2022-08-09T11:19:07.904Z,355
2022-08-09T11:20:10.796Z,367
2022-08-09T11:21:07.345Z,375
2022-08-09T11:22:18.498Z,378
2022-08-09T11:23:10.409Z,375
2022-08-09T11:24:07.591Z,335
2022-08-09T11:25:08.861Z,352
2022-08-09T11:26:07.217Z,357
2022-08-09T11:27:07.521Z,351
2022-08-09T11:28:27.955Z,344
2022-08-09T11:29:07.363Z,338
2022-08-09T11:30:32.106Z,357
2022-08-09T11:31:07.451Z,356
2022-08-09T11:32:07.032Z,352
2022-08-09T11:33:07.240Z,340
2022-08-09T11:34:07.148Z,346
2022-08-09T11:35:07.847Z,369
2022-08-09T11:36:07.366Z,368
2022-08-09T11:37:07.779Z,359
2022-08-09T11:38:07.479Z,353
2022-08-09T11:39:07.675Z,365
2022-08-09T11:40:08.191Z,367
2022-08-09T11:41:06.962Z,363
2022-08-09T11:42:07.387Z,354
2022-08-09T11:43:07.292Z,366
2022-08-09T11:44:07.662Z,374
2022-08-09T11:45:07.364Z,368
2022-08-09T11:46:07.647Z,366
2022-08-09T11:47:10.933Z,363
2022-08-09T11:48:17.430Z,357
2022-08-09T11:49:07.200Z,350
2022-08-09T11:52:49.584Z,361
2022-08-09T11:53:02.044Z,366
2022-08-09T11:53:57.900Z,363
2022-08-09T11:54:13.452Z,356
2022-08-09T11:55:07.189Z,354
2022-08-09T11:56:07.833Z,362
2022-08-09T11:57:07.428Z,366
2022-08-09T11:58:08.101Z,358
2022-08-09T11:59:07.462Z,361
2022-08-09T12:00:12.847Z,356
2022-08-09T12:01:08.659Z,352
2022-08-09T12:02:17.229Z,357
2022-08-09T12:03:50.330Z,364
2022-08-09T12:04:06.751Z,369
2022-08-09T12:05:07.740Z,377
2022-08-09T12:06:07.418Z,382
2022-08-09T12:07:08.180Z,375
2022-08-09T12:08:07.563Z,351
2022-08-09T12:09:15.272Z,345
2022-08-09T12:10:07.234Z,367
2022-08-09T12:11:12.773Z,368
2022-08-09T12:12:12.871Z,351
2022-08-09T12:14:07.538Z,382
2022-08-09T12:14:36.707Z,359
2022-08-09T12:15:09.118Z,364
2022-08-09T12:16:07.074Z,362
2022-08-09T12:17:34.008Z,342
2022-08-09T12:18:07.333Z,324
2022-08-09T12:19:07.242Z,348
2022-08-09T12:20:07.466Z,358
2022-08-09T12:21:26.392Z,354
2022-08-09T12:22:07.036Z,359
2022-08-09T12:23:58.055Z,368
2022-08-09T12:24:09.780Z,363
2022-08-09T12:25:07.745Z,380
2022-08-09T12:26:07.262Z,374
2022-08-09T12:29:09.879Z,362
2022-08-09T12:29:10.731Z,365
2022-08-09T12:29:33.444Z,368
2022-08-09T12:30:36.702Z,367
2022-08-09T12:31:11.125Z,359
2022-08-09T12:32:07.260Z,357
2022-08-09T12:33:07.789Z,363
2022-08-09T12:34:07.533Z,360
2022-08-09T12:35:12.585Z,350
2022-08-09T12:36:27.328Z,331
2022-08-09T12:37:21.853Z,375
2022-08-09T12:38:07.852Z,380
2022-08-09T12:39:07.600Z,359
2022-08-09T12:40:08.007Z,351
2022-08-09T12:41:07.415Z,349
2022-08-09T12:42:07.125Z,352
2022-08-09T12:43:07.386Z,356
2022-08-09T12:44:10.334Z,345
2022-08-09T12:45:34.931Z,336
2022-08-09T12:46:07.293Z,333
2022-08-09T12:47:07.541Z,330
2022-08-09T12:48:07.950Z,337
2022-08-09T12:49:07.659Z,362
2022-08-09T12:50:08.131Z,358
2022-08-09T12:51:07.408Z,342
2022-08-09T12:53:09.481Z,335
2022-08-09T12:54:07.901Z,328
2022-08-09T12:56:12.411Z,345
2022-08-09T12:57:07.436Z,339
2022-08-09T12:58:08.141Z,345
2022-08-09T12:59:07.449Z,360
2022-08-09T13:00:08.635Z,375
2022-08-09T13:01:07.496Z,365
2022-08-09T13:02:09.581Z,341
2022-08-09T13:03:07.420Z,334
2022-08-09T13:05:07.481Z,335
2022-08-09T13:06:10.660Z,350
2022-08-09T13:07:07.476Z,359
2022-08-09T13:08:07.911Z,361
2022-08-09T13:09:08.239Z,360
2022-08-09T13:10:07.727Z,368
2022-08-09T13:11:22.816Z,326
2022-08-09T13:12:07.506Z,349
2022-08-09T13:13:09.182Z,331
2022-08-09T13:15:08.119Z,337
2022-08-09T13:16:08.066Z,350
2022-08-09T13:17:08.620Z,356
2022-08-09T13:18:09.393Z,363
2022-08-09T13:19:08.440Z,347
2022-08-09T13:20:14.314Z,346
2022-08-09T13:22:37.550Z,352
2022-08-09T13:22:45.538Z,348
2022-08-09T13:24:06.756Z,349
2022-08-09T13:24:44.347Z,330
2022-08-09T13:25:12.050Z,346
2022-08-09T13:26:10.145Z,364
2022-08-09T13:27:08.615Z,373
2022-08-09T13:28:08.107Z,360
2022-08-09T13:29:07.644Z,358
2022-08-09T13:30:39.438Z,351
2022-08-09T13:32:13.376Z,353
2022-08-09T13:32:13.622Z,344
2022-08-09T13:33:11.493Z,350
2022-08-09T13:34:07.332Z,351
2022-08-09T13:35:08.098Z,333
2022-08-09T13:36:38.602Z,343
2022-08-09T13:37:07.633Z,334
2022-08-09T13:38:08.125Z,318
2022-08-09T13:41:50.811Z,310
2022-08-09T13:41:55.412Z,342
2022-08-09T13:41:56.659Z,331
2022-08-09T13:42:12.810Z,340
2022-08-09T13:43:09.821Z,341
2022-08-09T13:44:07.174Z,319
2022-08-09T13:45:08.314Z,369
2022-08-09T13:47:17.762Z,360
2022-08-09T13:47:26.616Z,348
2022-08-09T13:48:10.737Z,338
2022-08-09T13:49:07.630Z,348
2022-08-09T13:50:08.712Z,352
2022-08-09T13:51:09.033Z,345
2022-08-09T13:52:09.329Z,355
2022-08-09T13:53:07.481Z,361
2022-08-09T13:54:07.157Z,351
2022-08-09T13:55:07.860Z,352
2022-08-09T13:56:07.248Z,360
2022-08-09T13:57:07.407Z,356
2022-08-09T13:58:08.082Z,348
2022-08-09T13:59:07.834Z,338
2022-08-09T14:00:08.101Z,344
2022-08-09T14:01:13.466Z,343
2022-08-09T14:02:07.664Z,328
2022-08-09T14:04:01.262Z,331
2022-08-09T14:04:11.608Z,321
2022-08-09T14:05:08.517Z,318
2022-08-09T14:06:11.817Z,330
2022-08-09T14:07:07.881Z,355
2022-08-09T14:08:12.362Z,318
2022-08-09T14:09:07.690Z,339
2022-08-09T14:10:07.704Z,346
2022-08-09T14:11:09.972Z,342
2022-08-09T14:12:15.876Z,337
2022-08-09T14:13:07.508Z,350
2022-08-09T14:14:22.623Z,340
2022-08-09T14:16:06.857Z,330
2022-08-09T14:16:10.830Z,332
2022-08-09T14:17:07.608Z,329
2022-08-09T14:18:19.563Z,343
2022-08-09T14:19:07.964Z,334
2022-08-09T14:20:08.309Z,337
2022-08-09T14:21:08.204Z,341
2022-08-09T14:22:07.421Z,349
2022-08-09T14:23:08.259Z,348
2022-08-09T14:24:18.645Z,334
2022-08-09T14:25:10.050Z,351
2022-08-09T14:26:07.651Z,366
2022-08-09T14:27:20.710Z,364
2022-08-09T14:28:07.863Z,340
2022-08-09T14:29:08.080Z,365
2022-08-09T14:30:35.477Z,351
2022-08-09T14:31:07.409Z,342
2022-08-09T14:33:11.233Z,344